Time,TemperatureF,DewpointF,PressureIn,WindDirection,WindDirectionDegrees,WindSpeedMPH,WindSpeedGustMPH,Humidity,HourlyPrecipIn,Conditions,Clouds,dailyrainin,SoftwareType,DateUTC
2013-09-28 00:22:00,54.0,40.0,-100.00,North,4,1.0,3.0,61,0.00,,,-99.99,,2013-09-28 07:22:00,
2013-09-28 00:32:00,54.0,40.0,-100.00,North,4,1.0,3.0,61,0.00,,,-99.99,,2013-09-28 07:32:00,
2013-09-28 00:42:00,54.0,40.0,-100.00,North,4,1.0,3.0,61,0.00,,,-99.99,,2013-09-28 07:42:00,
2013-09-28 01:13:00,50.0,43.0,-100.00,NNE,15,4.0,6.0,76,0.00,,,-99.99,,2013-09-28 08:13:00,
2013-09-28 01:21:00,50.0,43.0,-100.00,NNE,15,4.0,6.0,76,0.00,,,-99.99,,2013-09-28 08:21:00,
2013-09-28 01:32:00,50.0,43.0,-100.00,NNE,15,4.0,6.0,76,0.00,,,-99.99,,2013-09-28 08:32:00,
2013-09-28 01:42:00,50.0,43.0,-100.00,NNE,15,4.0,6.0,76,0.00,,,-99.99,,2013-09-28 08:42:00,
2013-09-28 02:11:00,51.0,41.0,-100.00,NNE,28,0.0,0.0,68,0.00,,,-99.99,,2013-09-28 09:11:00,
2013-09-28 02:22:00,51.0,41.0,-100.00,NNE,28,0.0,0.0,68,0.00,,,-99.99,,2013-09-28 09:22:00,
2013-09-28 02:33:00,51.0,41.0,-100.00,NNE,28,0.0,0.0,68,0.00,,,-99.99,,2013-09-28 09:33:00,
2013-09-28 02:43:00,51.0,41.0,-100.00,NNE,28,0.0,0.0,68,0.00,,,-99.99,,2013-09-28 09:43:00,
2013-09-28 03:22:00,51.0,40.0,-100.00,North,7,0.0,0.0,65,0.00,,,-99.99,,2013-09-28 10:22:00,
2013-09-28 03:32:00,51.0,40.0,-100.00,North,7,0.0,0.0,65,0.00,,,-99.99,,2013-09-28 10:32:00,
2013-09-28 03:42:00,51.0,40.0,-100.00,North,7,0.0,0.0,65,0.00,,,-99.99,,2013-09-28 10:42:00,
2013-09-28 04:12:00,51.0,39.0,-100.00,ESE,115,1.0,5.0,65,0.00,,,-99.99,,2013-09-28 11:12:00,
2013-09-28 04:22:00,51.0,39.0,-100.00,ESE,115,1.0,5.0,65,0.00,,,-99.99,,2013-09-28 11:22:00,
2013-09-28 04:33:00,51.0,39.0,-100.00,ESE,115,1.0,5.0,65,0.00,,,-99.99,,2013-09-28 11:33:00,
2013-09-28 04:42:00,51.0,39.0,-100.00,ESE,115,1.0,5.0,65,0.00,,,-99.99,,2013-09-28 11:42:00,
2013-09-28 06:21:00,52.0,39.0,-100.00,NNE,16,0.0,0.0,61,0.00,,,-99.99,,2013-09-28 13:21:00,
2013-09-28 06:32:00,52.0,39.0,-100.00,NNE,16,0.0,0.0,61,0.00,,,-99.99,,2013-09-28 13:32:00,
2013-09-28 06:42:00,52.0,39.0,-100.00,NNE,16,0.0,0.0,61,0.00,,,-99.99,,2013-09-28 13:42:00,
2013-09-28 07:12:00,52.0,37.0,-100.00,SSE,157,0.0,-999.0,57,0.00,,,-99.99,,2013-09-28 14:12:00,
2013-09-28 07:21:00,52.0,37.0,-100.00,SSE,157,0.0,-999.0,57,0.00,,,-99.99,,2013-09-28 14:21:00,
2013-09-28 07:32:00,52.0,37.0,-100.00,SSE,157,0.0,-999.0,57,0.00,,,-99.99,,2013-09-28 14:32:00,
2013-09-28 07:42:00,52.0,37.0,-100.00,SSE,157,0.0,-999.0,57,0.00,,,-99.99,,2013-09-28 14:42:00,
2013-09-28 08:12:00,52.0,37.0,-100.00,ESE,106,0.0,0.0,55,0.00,,,-99.99,,2013-09-28 15:12:00,
2013-09-28 08:22:00,52.0,37.0,-100.00,ESE,106,0.0,0.0,55,0.00,,,-99.99,,2013-09-28 15:22:00,
2013-09-28 08:34:00,52.0,37.0,-100.00,ESE,106,0.0,0.0,55,0.00,,,-99.99,,2013-09-28 15:34:00,
2013-09-28 08:44:00,52.0,37.0,-100.00,ESE,106,0.0,0.0,55,0.00,,,-99.99,,2013-09-28 15:44:00,
2013-09-28 09:24:00,60.0,40.0,-100.00,SW,224,0.0,0.0,48,0.00,,,-99.99,,2013-09-28 16:24:00,
2013-09-28 09:33:00,60.0,40.0,-100.00,SW,224,0.0,0.0,48,0.00,,,-99.99,,2013-09-28 16:33:00,
2013-09-28 09:43:00,60.0,40.0,-100.00,SW,224,0.0,0.0,48,0.00,,,-99.99,,2013-09-28 16:43:00,
2013-09-28 10:13:00,65.0,38.0,-100.00,SW,234,1.0,3.0,37,0.00,,,-99.99,,2013-09-28 17:13:00,
2013-09-28 10:23:00,65.0,38.0,-100.00,SW,234,1.0,3.0,37,0.00,,,-99.99,,2013-09-28 17:23:00,
2013-09-28 10:34:00,65.0,38.0,-100.00,SW,234,1.0,3.0,37,0.00,,,-99.99,,2013-09-28 17:34:00,
2013-09-28 10:42:00,65.0,38.0,-100.00,SW,234,1.0,3.0,37,0.00,,,-99.99,,2013-09-28 17:42:00,
2013-09-28 11:22:00,70.0,39.0,-100.00,WSW,250,3.0,-999.0,32,0.00,,,-99.99,,2013-09-28 18:22:00,
2013-09-28 11:32:00,70.0,39.0,-100.00,WSW,250,3.0,-999.0,32,0.00,,,-99.99,,2013-09-28 18:32:00,
2013-09-28 11:42:00,70.0,39.0,-100.00,WSW,250,3.0,-999.0,32,0.00,,,-99.99,,2013-09-28 18:42:00,
2013-09-28 12:21:00,74.0,46.0,-100.00,WSW,257,7.0,10.0,36,0.00,,,-99.99,,2013-09-28 19:21:00,
2013-09-28 12:32:00,74.0,46.0,-100.00,WSW,257,7.0,10.0,36,0.00,,,-99.99,,2013-09-28 19:32:00,
2013-09-28 12:42:00,74.0,46.0,-100.00,WSW,257,7.0,10.0,36,0.00,,,-99.99,,2013-09-28 19:42:00,
2013-09-28 13:12:00,71.0,47.0,-100.00,West,278,9.0,11.0,42,0.00,,,-99.99,,2013-09-28 20:12:00,
2013-09-28 13:22:00,71.0,47.0,-100.00,West,278,9.0,11.0,42,0.00,,,-99.99,,2013-09-28 20:22:00,
2013-09-28 13:32:00,71.0,47.0,-100.00,West,278,9.0,11.0,42,0.00,,,-99.99,,2013-09-28 20:32:00,
2013-09-28 13:43:00,71.0,47.0,-100.00,West,278,9.0,11.0,42,0.00,,,-99.99,,2013-09-28 20:43:00,
2013-09-28 14:12:00,72.0,44.0,-100.00,West,265,8.0,12.0,36,0.00,,,-99.99,,2013-09-28 21:12:00,
2013-09-28 14:22:00,72.0,44.0,-100.00,West,265,8.0,12.0,36,0.00,,,-99.99,,2013-09-28 21:22:00,
2013-09-28 14:34:00,72.0,44.0,-100.00,West,265,8.0,12.0,36,0.00,,,-99.99,,2013-09-28 21:34:00,
2013-09-28 14:44:00,72.0,44.0,-100.00,West,265,8.0,12.0,36,0.00,,,-99.99,,2013-09-28 21:44:00,
2013-09-28 15:13:00,70.0,50.0,-100.00,WSW,249,8.0,10.0,49,0.00,,,-99.99,,2013-09-28 22:13:00,
2013-09-28 17:43:00,67.0,50.0,-100.00,SW,223,5.0,8.0,55,0.00,,,-99.99,,2013-09-29 00:43:00,
2013-09-28 18:12:00,65.0,51.0,-100.00,South,187,5.0,8.0,62,0.00,,,-99.99,,2013-09-29 01:12:00,
2013-09-28 18:21:00,65.0,51.0,-100.00,South,187,5.0,8.0,62,0.00,,,-99.99,,2013-09-29 01:21:00,
2013-09-28 18:32:00,65.0,51.0,-100.00,South,187,5.0,8.0,62,0.00,,,-99.99,,2013-09-29 01:32:00,
2013-09-28 19:12:00,60.0,52.0,-100.00,SSE,162,6.0,10.0,75,0.00,,,-99.99,,2013-09-29 02:12:00,
2013-09-28 19:22:00,60.0,52.0,-100.00,SSE,162,6.0,10.0,75,0.00,,,-99.99,,2013-09-29 02:22:00,
2013-09-28 19:32:00,60.0,52.0,-100.00,SSE,162,6.0,10.0,75,0.00,,,-99.99,,2013-09-29 02:32:00,
2013-09-28 19:43:00,60.0,52.0,-100.00,SSE,162,6.0,10.0,75,0.00,,,-99.99,,2013-09-29 02:43:00,
2013-09-28 20:12:00,58.0,52.0,-100.00,SE,138,6.0,-999.0,81,0.00,,,-99.99,,2013-09-29 03:12:00,
2013-09-28 20:23:00,58.0,52.0,-100.00,SE,138,6.0,-999.0,81,0.00,,,-99.99,,2013-09-29 03:23:00,
2013-09-28 20:34:00,58.0,52.0,-100.00,SE,138,6.0,-999.0,81,0.00,,,-99.99,,2013-09-29 03:34:00,
2013-09-28 20:44:00,58.0,52.0,-100.00,SE,138,6.0,-999.0,81,0.00,,,-99.99,,2013-09-29 03:44:00,
2013-09-28 21:02:00,-999.0,-99.9,-100.00,ESE,116,4.0,8.0,-999,-99.99,,,-99.99,,2013-09-29 04:02:00,
2013-09-28 21:14:00,57.0,52.0,-100.00,ESE,116,4.0,8.0,83,0.00,,,-99.99,,2013-09-29 04:14:00,
2013-09-28 21:24:00,57.0,52.0,-100.00,ESE,116,4.0,8.0,83,0.00,,,-99.99,,2013-09-29 04:24:00,
2013-09-28 21:34:00,57.0,52.0,-100.00,ESE,116,4.0,8.0,83,0.00,,,-99.99,,2013-09-29 04:34:00,
2013-09-28 21:44:00,57.0,52.0,-100.00,ESE,116,4.0,8.0,83,0.00,,,-99.99,,2013-09-29 04:44:00,
2013-09-28 22:13:00,56.0,51.0,-100.00,East,99,0.0,0.0,81,0.00,,,-99.99,,2013-09-29 05:13:00,
2013-09-28 22:22:00,56.0,51.0,-100.00,East,99,0.0,0.0,81,0.00,,,-99.99,,2013-09-29 05:22:00,
2013-09-28 22:34:00,56.0,51.0,-100.00,East,99,0.0,0.0,81,0.00,,,-99.99,,2013-09-29 05:34:00,
2013-09-28 22:43:00,56.0,51.0,-100.00,East,99,0.0,0.0,81,0.00,,,-99.99,,2013-09-29 05:43:00,
2013-09-28 23:22:00,55.0,51.0,-100.00,ESE,108,5.0,9.0,86,0.00,,,-99.99,,2013-09-29 06:22:00,
2013-09-28 23:32:00,55.0,51.0,-100.00,ESE,108,5.0,9.0,86,0.00,,,-99.99,,2013-09-29 06:32:00,
2013-09-28 23:42:00,55.0,51.0,-100.00,ESE,108,5.0,9.0,86,0.00,,,-99.99,,2013-09-29 06:42:00,